Time,TemperatureF,DewpointF,PressureIn,WindDirection,WindDirectionDegrees,WindSpeedMPH,WindSpeedGustMPH,Humidity,HourlyPrecipIn,Conditions,Clouds,dailyrainin,SolarRadiationWatts/m^2,SoftwareType,DateUTC
2013-04-30 00:42:00,42.0,24.0,-100.00,West,274,8.0,19.0,49,-99.99,,,0.00,0.000000,,2013-04-30 06:42:00,
2013-04-30 00:52:00,42.0,24.0,-100.00,West,274,8.0,19.0,49,-99.99,,,0.00,0.000000,,2013-04-30 06:52:00,
2013-04-30 01:01:00,42.0,24.0,-100.00,West,274,8.0,19.0,49,-99.99,,,0.00,0.000000,,2013-04-30 07:01:00,
2013-04-30 01:11:00,42.0,24.0,-100.00,West,274,8.0,19.0,49,-99.99,,,0.00,0.000000,,2013-04-30 07:11:00,
2013-04-30 01:21:00,42.0,24.0,-100.00,West,274,8.0,19.0,49,-99.99,,,0.00,0.000000,,2013-04-30 07:21:00,
2013-04-30 01:42:00,40.0,25.0,-100.00,West,264,7.0,15.0,54,0.00,,,0.00,0.000000,,2013-04-30 07:42:00,
2013-04-30 01:52:00,40.0,25.0,-100.00,West,264,7.0,15.0,54,0.00,,,0.00,0.000000,,2013-04-30 07:52:00,
2013-04-30 02:02:00,40.0,25.0,-100.00,West,264,7.0,15.0,54,0.00,,,0.00,0.000000,,2013-04-30 08:02:00,
2013-04-30 02:11:00,40.0,25.0,-100.00,West,264,7.0,15.0,54,0.00,,,0.00,0.000000,,2013-04-30 08:11:00,
2013-04-30 02:21:00,40.0,25.0,-100.00,West,264,7.0,15.0,54,0.00,,,0.00,0.000000,,2013-04-30 08:21:00,
2013-04-30 02:52:00,38.0,25.0,-100.00,West,262,6.0,15.0,59,0.00,,,0.00,0.000000,,2013-04-30 08:52:00,
2013-04-30 03:01:00,38.0,25.0,-100.00,West,262,6.0,15.0,59,0.00,,,0.00,0.000000,,2013-04-30 09:01:00,
2013-04-30 03:11:00,38.0,25.0,-100.00,West,262,6.0,15.0,59,0.00,,,0.00,0.000000,,2013-04-30 09:11:00,
2013-04-30 03:22:00,38.0,25.0,-100.00,West,262,6.0,15.0,59,0.00,,,0.00,0.000000,,2013-04-30 09:22:00,
2013-04-30 07:41:00,37.0,29.0,-100.00,WNW,297,7.0,21.0,72,-99.99,,,0.00,74.000000,,2013-04-30 13:41:00,
2013-04-30 07:52:00,37.0,29.0,-100.00,WNW,297,7.0,21.0,72,-99.99,,,0.00,74.000000,,2013-04-30 13:52:00,
2013-04-30 08:02:00,37.0,29.0,-100.00,WNW,297,7.0,21.0,72,-99.99,,,0.00,74.000000,,2013-04-30 14:02:00,
2013-04-30 08:11:00,37.0,29.0,-100.00,WNW,297,7.0,21.0,72,-99.99,,,0.00,74.000000,,2013-04-30 14:11:00,
2013-04-30 08:21:00,37.0,29.0,-100.00,WNW,297,7.0,21.0,72,-99.99,,,0.00,74.000000,,2013-04-30 14:21:00,
2013-04-30 08:52:00,38.0,28.0,-100.00,South,188,8.0,23.0,66,0.00,,,0.00,123.000000,,2013-04-30 14:52:00,
2013-04-30 09:01:00,38.0,28.0,-100.00,South,188,8.0,23.0,66,0.00,,,0.00,123.000000,,2013-04-30 15:01:00,
2013-04-30 09:11:00,38.0,28.0,-100.00,South,188,8.0,23.0,66,0.00,,,0.00,123.000000,,2013-04-30 15:11:00,
2013-04-30 09:21:00,38.0,28.0,-100.00,South,188,8.0,23.0,66,0.00,,,0.00,123.000000,,2013-04-30 15:21:00,
2013-04-30 09:52:00,38.0,26.0,-100.00,WNW,288,10.0,24.0,61,0.00,,,0.00,234.000000,,2013-04-30 15:52:00,
2013-04-30 10:02:00,38.0,26.0,-100.00,WNW,288,10.0,24.0,61,0.00,,,0.00,234.000000,,2013-04-30 16:02:00,
2013-04-30 10:12:00,38.0,26.0,-100.00,WNW,288,10.0,24.0,61,0.00,,,0.00,234.000000,,2013-04-30 16:12:00,
2013-04-30 10:23:00,38.0,26.0,-100.00,WNW,288,10.0,24.0,61,0.00,,,0.00,234.000000,,2013-04-30 16:23:00,
2013-04-30 10:42:00,40.0,25.0,-100.00,NW,304,13.0,24.0,54,0.00,,,0.00,381.000000,,2013-04-30 16:42:00,
2013-04-30 10:52:00,40.0,25.0,-100.00,NW,304,13.0,24.0,54,0.00,,,0.00,381.000000,,2013-04-30 16:52:00,
2013-04-30 11:02:00,40.0,25.0,-100.00,NW,304,13.0,24.0,54,0.00,,,0.00,381.000000,,2013-04-30 17:02:00,
2013-04-30 11:12:00,40.0,25.0,-100.00,NW,304,13.0,24.0,54,0.00,,,0.00,381.000000,,2013-04-30 17:12:00,
2013-04-30 11:22:00,40.0,25.0,-100.00,NW,304,13.0,24.0,54,0.00,,,0.00,381.000000,,2013-04-30 17:22:00,
2013-04-30 11:52:00,43.0,27.0,-100.00,WNW,303,11.0,28.0,52,0.00,,,0.00,548.000000,,2013-04-30 17:52:00,
2013-04-30 12:01:00,43.0,27.0,-100.00,WNW,303,11.0,28.0,52,0.00,,,0.00,548.000000,,2013-04-30 18:01:00,
2013-04-30 12:11:00,43.0,27.0,-100.00,WNW,303,11.0,28.0,52,0.00,,,0.00,548.000000,,2013-04-30 18:11:00,
2013-04-30 12:22:00,43.0,27.0,-100.00,WNW,303,11.0,28.0,52,0.00,,,0.00,548.000000,,2013-04-30 18:22:00,
2013-04-30 12:42:00,43.0,26.0,-100.00,NW,313,13.0,28.0,50,0.00,,,0.00,543.000000,,2013-04-30 18:42:00,
2013-04-30 12:52:00,43.0,26.0,-100.00,NW,313,13.0,28.0,50,0.00,,,0.00,543.000000,,2013-04-30 18:52:00,
2013-04-30 13:01:00,43.0,26.0,-100.00,NW,313,13.0,28.0,50,0.00,,,0.00,543.000000,,2013-04-30 19:01:00,
2013-04-30 13:11:00,43.0,26.0,-100.00,NW,313,13.0,28.0,50,0.00,,,0.00,543.000000,,2013-04-30 19:11:00,
2013-04-30 13:21:00,43.0,26.0,-100.00,NW,313,13.0,28.0,50,0.00,,,0.00,543.000000,,2013-04-30 19:21:00,
2013-04-30 13:52:00,46.0,26.0,-100.00,NW,315,12.0,26.0,46,0.00,,,0.00,840.000000,,2013-04-30 19:52:00,
2013-04-30 14:02:00,46.0,26.0,-100.00,NW,315,12.0,26.0,46,0.00,,,0.00,840.000000,,2013-04-30 20:02:00,
2013-04-30 14:11:00,46.0,26.0,-100.00,NW,315,12.0,26.0,46,0.00,,,0.00,840.000000,,2013-04-30 20:11:00,
2013-04-30 14:21:00,46.0,26.0,-100.00,NW,315,12.0,26.0,46,0.00,,,0.00,840.000000,,2013-04-30 20:21:00,
2013-04-30 14:52:00,42.0,23.0,-100.00,NW,314,12.0,25.0,46,0.00,,,0.00,788.000000,,2013-04-30 20:52:00,
2013-04-30 15:02:00,42.0,23.0,-100.00,NW,314,12.0,25.0,46,0.00,,,0.00,788.000000,,2013-04-30 21:02:00,
2013-04-30 15:11:00,42.0,23.0,-100.00,NW,314,12.0,25.0,46,0.00,,,0.00,788.000000,,2013-04-30 21:11:00,
2013-04-30 15:22:00,42.0,23.0,-100.00,NW,314,12.0,25.0,46,0.00,,,0.00,788.000000,,2013-04-30 21:22:00,
2013-04-30 15:53:00,42.0,23.0,-100.00,NW,314,12.0,28.0,46,0.00,,,0.00,601.000000,,2013-04-30 21:53:00,
2013-04-30 16:02:00,42.0,23.0,-100.00,NW,314,12.0,28.0,46,0.00,,,0.00,601.000000,,2013-04-30 22:02:00,
2013-04-30 16:12:00,42.0,23.0,-100.00,NW,314,12.0,28.0,46,0.00,,,0.00,601.000000,,2013-04-30 22:12:00,
2013-04-30 16:23:00,42.0,23.0,-100.00,NW,314,12.0,28.0,46,0.00,,,0.00,601.000000,,2013-04-30 22:23:00,
2013-04-30 16:53:00,41.0,24.0,-100.00,NNW,331,10.0,26.0,50,0.00,,,0.00,562.000000,,2013-04-30 22:53:00,
2013-04-30 17:02:00,41.0,24.0,-100.00,NNW,331,10.0,26.0,50,0.00,,,0.00,562.000000,,2013-04-30 23:02:00,
2013-04-30 17:12:00,41.0,24.0,-100.00,NNW,331,10.0,26.0,50,0.00,,,0.00,562.000000,,2013-04-30 23:12:00,
2013-04-30 17:22:00,41.0,24.0,-100.00,NNW,331,10.0,26.0,50,0.00,,,0.00,562.000000,,2013-04-30 23:22:00,
2013-04-30 17:52:00,38.0,22.0,-100.00,NW,324,11.0,23.0,51,0.00,,,0.00,260.000000,,2013-04-30 23:52:00,
2013-04-30 18:02:00,38.0,22.0,-100.00,NW,324,11.0,23.0,51,0.00,,,0.00,260.000000,,2013-05-01 00:02:00,
2013-04-30 18:11:00,38.0,22.0,-100.00,NW,324,11.0,23.0,51,0.00,,,0.00,260.000000,,2013-05-01 00:11:00,
2013-04-30 18:21:00,38.0,22.0,-100.00,NW,324,11.0,23.0,51,0.00,,,0.00,260.000000,,2013-05-01 00:21:00,
2013-04-30 18:52:00,37.0,20.0,-100.00,NNW,339,10.0,23.0,50,0.00,,,-99.99,149.000000,,2013-05-01 00:52:00,
2013-04-30 19:01:00,37.0,20.0,-100.00,NNW,339,10.0,23.0,50,0.00,,,-99.99,149.000000,,2013-05-01 01:01:00,
2013-04-30 19:11:00,37.0,20.0,-100.00,NNW,339,10.0,23.0,50,0.00,,,-99.99,149.000000,,2013-05-01 01:11:00,
2013-04-30 19:21:00,37.0,20.0,-100.00,NNW,339,10.0,23.0,50,0.00,,,-99.99,149.000000,,2013-05-01 01:21:00,
2013-04-30 19:52:00,36.0,20.0,-100.00,ESE,121,6.0,20.0,51,0.00,,,0.00,81.000000,,2013-05-01 01:52:00,
2013-04-30 20:02:00,36.0,20.0,-100.00,ESE,121,6.0,20.0,51,0.00,,,0.00,81.000000,,2013-05-01 02:02:00,
2013-04-30 20:11:00,36.0,20.0,-100.00,ESE,121,6.0,20.0,51,0.00,,,0.00,81.000000,,2013-05-01 02:11:00,
2013-04-30 20:21:00,36.0,20.0,-100.00,ESE,121,6.0,20.0,51,0.00,,,0.00,81.000000,,2013-05-01 02:21:00,
2013-04-30 20:52:00,32.0,19.0,-100.00,NW,320,3.0,16.0,59,0.00,,,-99.99,18.000000,,2013-05-01 02:52:00,
2013-04-30 21:02:00,32.0,19.0,-100.00,NW,320,3.0,16.0,59,0.00,,,-99.99,18.000000,,2013-05-01 03:02:00,
2013-04-30 21:11:00,32.0,19.0,-100.00,NW,320,3.0,16.0,59,0.00,,,-99.99,18.000000,,2013-05-01 03:11:00,
2013-04-30 21:21:00,32.0,19.0,-100.00,NW,320,3.0,16.0,59,0.00,,,-99.99,18.000000,,2013-05-01 03:21:00,
2013-04-30 21:53:00,28.0,20.0,-100.00,West,272,2.0,5.0,73,0.00,,,-99.99,0.000000,,2013-05-01 03:53:00,
2013-04-30 22:03:00,28.0,20.0,-100.00,West,272,2.0,5.0,73,0.00,,,-99.99,0.000000,,2013-05-01 04:03:00,
2013-04-30 22:12:00,28.0,20.0,-100.00,West,272,2.0,5.0,73,0.00,,,-99.99,0.000000,,2013-05-01 04:12:00,
2013-04-30 22:22:00,28.0,20.0,-100.00,West,272,2.0,5.0,73,0.00,,,-99.99,0.000000,,2013-05-01 04:22:00,
2013-04-30 22:52:00,26.0,20.0,-100.00,West,268,1.0,4.0,79,0.00,,,0.00,0.000000,,2013-05-01 04:52:00,
2013-04-30 23:02:00,26.0,20.0,-100.00,West,268,1.0,4.0,79,0.00,,,0.00,0.000000,,2013-05-01 05:02:00,
2013-04-30 23:11:00,26.0,20.0,-100.00,West,268,1.0,4.0,79,0.00,,,0.00,0.000000,,2013-05-01 05:11:00,
2013-04-30 23:21:00,26.0,20.0,-100.00,West,268,1.0,4.0,79,0.00,,,0.00,0.000000,,2013-05-01 05:21:00,
2013-04-30 23:52:00,30.0,21.0,-100.00,West,259,3.0,5.0,70,0.00,,,-99.99,0.000000,,2013-05-01 05:52:00,